This is the latest recevied weather packets stored in our database for station/object HB9GPU-10. If no packets are shown the sender has not sent any weather packets the latest 10 day(s).
| Time | Temp. | Humidity | Pressure | Rain* | Wind** | Luminosity | Snow |
|---|---|---|---|---|---|---|---|
| 1788381228 | 23.33° C | 33% | 1026.6 hPa | - | - | - | - |
| 1788380328 | 23.89° C | 32% | 1026.5 hPa | - | - | - | - |
| 1788379426 | 24.44° C | 32% | 1026.5 hPa | - | - | - | - |
| 1788378526 | 24.44° C | 32% | 1026.5 hPa | - | - | - | - |
| 1788377626 | 24.44° C | 32% | 1026.4 hPa | - | - | - | - |
| 1788376726 | 24.44° C | 31% | 1026.2 hPa | - | - | - | - |
| 1788375826 | 24.44° C | 31% | 1026.1 hPa | - | - | - | - |
| 1788374925 | 24.44° C | 33% | 1026 hPa | - | - | - | - |
| 1788374025 | 24.44° C | 31% | 1025.8 hPa | - | - | - | - |
| 1788373125 | 25° C | 33% | 1025.7 hPa | - | - | - | - |
| 1788372225 | 24.44° C | 33% | 1025.6 hPa | - | - | - | - |
| 1788371325 | 25° C | 33% | 1025.5 hPa | - | - | - | - |
| 1788370425 | 23.89° C | 34% | 1025.4 hPa | - | - | - | - |
| 1788369524 | 25° C | 34% | 1025.3 hPa | - | - | - | - |
| 1788368624 | 24.44° C | 35% | 1025.2 hPa | - | - | - | - |
| 1788367724 | 25.56° C | 32% | 1025.1 hPa | - | - | - | - |
| 1788366824 | 25° C | 33% | 1025 hPa | - | - | - | - |
| 1788365924 | 24.44° C | 33% | 1024.9 hPa | - | - | - | - |
| 1788365024 | 26.11° C | 30% | 1024.7 hPa | - | - | - | - |
| 1788364123 | 25.56° C | 30% | 1024.7 hPa | - | - | - | - |
| 1788363250 | 25.56° C | 31% | 1024.5 hPa | - | - | - | - |
| 1788362323 | 26.11° C | 30% | 1024.6 hPa | - | - | - | - |
| 1788361423 | 26.11° C | 32% | 1024.6 hPa | - | - | - | - |
| 1788360523 | 25.56° C | 33% | 1024.6 hPa | - | - | - | - |
| 1788359622 | 25.56° C | 33% | 1024.7 hPa | - | - | - | - |
* Rain since midnight (hover to see other rain measurements)
** Current wind speed in m/s (hover to see current wind gust speed)